createdAt,value
2019-04-14T00:02:40.356Z,99.90
2019-04-14T00:05:14.929Z,99.90
2019-04-14T00:10:18.231Z,99.90
2019-04-14T00:12:49.350Z,99.90
2019-04-14T00:15:30.918Z,99.90
2019-04-14T00:17:54.606Z,99.90
2019-04-14T00:20:27.190Z,99.90
2019-04-14T00:22:58.235Z,99.90
2019-04-14T00:25:30.282Z,99.90
2019-04-14T00:30:31.745Z,99.90
2019-04-14T00:33:04.464Z,99.90
2019-04-14T00:38:19.786Z,99.90
2019-04-14T00:41:05.567Z,99.90
2019-04-14T00:43:45.840Z,99.90
2019-04-14T00:46:21.157Z,99.90
2019-04-14T00:48:52.339Z,99.90
2019-04-14T00:51:24.405Z,99.90
2019-04-14T00:53:55.766Z,99.90
2019-04-14T00:56:27.880Z,99.90
2019-04-14T00:58:58.939Z,99.90
2019-04-14T01:01:30.832Z,99.90
2019-04-14T01:06:32.198Z,99.90
2019-04-14T01:09:04.279Z,99.90
2019-04-14T01:11:35.863Z,99.90
2019-04-14T01:14:07.935Z,99.90
2019-04-14T01:16:39.055Z,99.90
2019-04-14T01:19:11.199Z,99.90
2019-04-14T01:21:43.507Z,99.90
2019-04-14T01:24:14.683Z,99.90
2019-04-14T01:26:46.370Z,99.90
2019-04-14T01:29:18.695Z,99.90
2019-04-14T01:31:49.767Z,99.90
2019-04-14T01:34:21.701Z,99.90
2019-04-14T01:36:53.930Z,99.90
2019-04-14T01:39:26.409Z,99.90
2019-04-14T01:41:58.452Z,99.90
2019-04-14T01:44:30.611Z,99.90
2019-04-14T01:47:03.019Z,99.90
2019-04-14T01:49:35.358Z,99.90
2019-04-14T01:52:32.003Z,99.90
2019-04-14T01:58:19.380Z,99.90
2019-04-14T02:01:19.568Z,99.90
2019-04-14T02:03:51.911Z,99.90
2019-04-14T02:06:24.448Z,99.90
2019-04-14T02:08:56.825Z,99.90
2019-04-14T02:11:29.194Z,99.90
2019-04-14T02:14:01.602Z,99.90
2019-04-14T02:16:39.485Z,99.90
2019-04-14T02:19:06.622Z,99.90
2019-04-14T02:24:09.192Z,99.90
2019-04-14T02:29:10.452Z,99.90
2019-04-14T02:32:11.445Z,99.90
2019-04-14T02:34:41.728Z,99.90
2019-04-14T02:37:24.452Z,99.90
2019-04-14T02:39:53.589Z,99.90
2019-04-14T02:42:30.457Z,99.90
2019-04-14T02:44:55.345Z,99.90
2019-04-14T02:50:00.816Z,99.90
2019-04-14T02:52:29.929Z,99.90
2019-04-14T02:54:59.885Z,99.90
2019-04-14T02:57:47.562Z,99.90
2019-04-14T03:00:07.844Z,99.90
2019-04-14T03:02:38.838Z,99.90
2019-04-14T03:05:12.790Z,99.90
2019-04-14T03:07:45.867Z,99.90
2019-04-14T03:10:22.403Z,99.90
2019-04-14T03:12:46.541Z,99.90
2019-04-14T03:15:29.578Z,99.90
2019-04-14T03:18:31.845Z,99.90
2019-04-14T03:21:30.625Z,99.90
2019-04-14T03:24:15.950Z,99.90
2019-04-14T03:32:32.306Z,99.90
2019-04-14T03:34:54.667Z,99.90
2019-04-14T03:39:46.634Z,99.90
2019-04-14T03:45:00.478Z,99.90
2019-04-14T03:50:00.006Z,99.90
2019-04-14T03:54:58.463Z,99.90
2019-04-14T03:57:10.480Z,99.90
2019-04-14T03:59:41.611Z,99.90
2019-04-14T04:02:13.893Z,99.90
2019-04-14T04:04:44.998Z,99.90
2019-04-14T04:07:17.037Z,99.90
2019-04-14T04:10:09.979Z,99.90
2019-04-14T04:12:42.176Z,99.90
2019-04-14T04:18:05.054Z,99.90
2019-04-14T04:20:54.484Z,99.90
2019-04-14T04:23:53.359Z,99.90
2019-04-14T04:26:52.191Z,99.90
2019-04-14T04:32:36.962Z,99.90
2019-04-14T04:35:30.951Z,99.90
2019-04-14T04:38:18.242Z,99.90
2019-04-14T04:40:49.236Z,99.90
2019-04-14T04:43:21.138Z,99.90
2019-04-14T04:45:52.126Z,99.90
2019-04-14T04:48:24.106Z,99.90
2019-04-14T04:50:56.263Z,99.90
2019-04-14T04:53:27.397Z,99.90
2019-04-14T04:55:59.276Z,99.90
2019-04-14T05:01:01.480Z,99.90
2019-04-14T05:06:39.383Z,99.90
2019-04-14T05:09:18.615Z,99.90
2019-04-14T05:12:08.957Z,99.90
2019-04-14T05:14:47.972Z,99.90
2019-04-14T05:17:19.612Z,99.90
2019-04-14T05:19:51.818Z,99.90
2019-04-14T05:22:22.911Z,99.90
2019-04-14T05:27:25.323Z,99.90
2019-04-14T05:29:58.040Z,99.90
2019-04-14T05:32:28.974Z,99.90
2019-04-14T05:35:00.853Z,99.90
2019-04-14T05:37:33.293Z,99.90
2019-04-14T05:40:05.892Z,99.90
2019-04-14T05:47:02.174Z,99.90
2019-04-14T05:49:38.934Z,99.90
2019-04-14T05:54:36.727Z,99.90
2019-04-14T05:57:08.810Z,99.90
2019-04-14T05:59:40.362Z,99.90
2019-04-14T06:04:43.879Z,99.90
2019-04-14T06:07:15.099Z,99.90
2019-04-14T06:09:46.271Z,99.90
2019-04-14T06:14:47.707Z,99.90
2019-04-14T06:17:18.870Z,99.90
2019-04-14T06:29:52.767Z,99.90
2019-04-14T06:32:32.619Z,99.90
2019-04-14T06:35:21.518Z,99.90
2019-04-14T06:37:56.190Z,99.90
2019-04-14T06:40:29.411Z,99.90
2019-04-14T06:43:00.616Z,99.90
2019-04-14T06:45:32.195Z,99.90
2019-04-14T06:48:03.215Z,99.90
2019-04-14T06:50:34.403Z,99.90
2019-04-14T06:53:05.611Z,99.90
2019-04-14T06:55:36.871Z,99.90
2019-04-14T06:58:08.002Z,99.90
2019-04-14T07:00:39.571Z,99.90
2019-04-14T07:03:10.699Z,99.90
2019-04-14T07:05:41.887Z,99.90
2019-04-14T07:10:43.251Z,99.90
2019-04-14T07:13:14.707Z,99.90
2019-04-14T07:15:45.938Z,99.90
2019-04-14T07:18:17.139Z,99.90
2019-04-14T07:20:48.344Z,97.10
2019-04-14T07:23:19.446Z,96.40
2019-04-14T07:25:50.619Z,99.30
2019-04-14T07:28:21.818Z,94.90
2019-04-14T07:31:14.633Z,99.90
2019-04-14T07:34:03.394Z,97.20
2019-04-14T07:39:49.546Z,99.90
2019-04-14T07:42:29.923Z,99.90
2019-04-14T07:45:18.595Z,99.90
2019-04-14T07:47:56.878Z,99.90
2019-04-14T07:50:34.380Z,99.90
2019-04-14T07:53:42.885Z,99.90
2019-04-14T07:56:38.631Z,99.90
2019-04-14T07:59:15.603Z,99.30
2019-04-14T08:01:53.139Z,99.90
2019-04-14T08:04:29.716Z,99.90
2019-04-14T08:07:01.127Z,99.90
2019-04-14T08:09:33.363Z,99.90
2019-04-14T08:14:34.928Z,99.90
2019-04-14T08:19:37.228Z,99.90
2019-04-14T08:24:38.943Z,99.80
2019-04-14T08:27:10.423Z,98.50
2019-04-14T08:29:41.650Z,99.60
2019-04-14T08:32:13.034Z,95.20
2019-04-14T08:34:44.332Z,93.50
2019-04-14T08:39:45.866Z,94.70
2019-04-14T08:42:40.278Z,95.90
2019-04-14T08:45:17.687Z,92.80
2019-04-14T08:48:26.136Z,91.10
2019-04-14T08:51:14.219Z,93.70
2019-04-14T08:53:49.591Z,92.20
2019-04-14T08:56:39.163Z,92.10
2019-04-14T08:59:35.087Z,90.40
2019-04-14T09:02:17.327Z,90.20
2019-04-14T09:04:55.412Z,90.50
2019-04-14T09:07:32.999Z,87.60
2019-04-14T09:15:24.363Z,84.30
2019-04-14T09:17:55.633Z,86.70
2019-04-14T09:20:26.747Z,86.80
2019-04-14T09:22:57.876Z,83.90
2019-04-14T09:27:59.484Z,79.40
2019-04-14T09:30:30.716Z,80.20
2019-04-14T09:33:02.291Z,83.10
2019-04-14T09:38:03.776Z,77.50
2019-04-14T09:40:34.983Z,75.00
2019-04-14T09:43:06.163Z,77.90
2019-04-14T09:45:37.359Z,76.70
2019-04-14T09:48:08.623Z,76.30
2019-04-14T09:50:39.972Z,70.40
2019-04-14T09:53:11.144Z,74.50
2019-04-14T10:00:43.012Z,69.50
2019-04-14T10:03:14.189Z,68.70
2019-04-14T10:05:45.391Z,63.00
2019-04-14T10:08:16.541Z,58.10
2019-04-14T10:10:47.699Z,56.10
2019-04-14T10:13:19.167Z,57.20
2019-04-14T10:15:50.419Z,59.20
2019-04-14T10:18:21.530Z,56.10
2019-04-14T10:20:52.663Z,53.90
2019-04-14T10:23:23.867Z,52.70
2019-04-14T10:25:55.568Z,49.20
2019-04-14T10:28:26.734Z,46.70
2019-04-14T10:30:57.890Z,45.90
2019-04-14T10:36:00.599Z,41.70
2019-04-14T10:38:32.445Z,43.70
2019-04-14T10:43:35.327Z,41.80
2019-04-14T10:46:07.333Z,40.30
2019-04-14T10:48:39.142Z,39.70
2019-04-14T10:53:41.634Z,41.40
2019-04-14T10:56:13.456Z,39.30
2019-04-14T10:58:45.587Z,38.40
2019-04-14T11:01:17.384Z,39.10
2019-04-14T11:03:49.178Z,41.20
2019-04-14T11:06:48.615Z,39.20
2019-04-14T11:09:20.367Z,39.70
2019-04-14T11:14:23.379Z,36.50
2019-04-14T11:16:55.843Z,36.40
2019-04-14T11:19:27.615Z,34.30
2019-04-14T11:21:59.399Z,36.40
2019-04-14T11:24:31.123Z,32.60
2019-04-14T11:27:02.915Z,32.60
2019-04-14T11:29:34.643Z,32.30
2019-04-14T11:32:40.382Z,33.90
2019-04-14T11:35:24.743Z,34.00
2019-04-14T11:38:13.768Z,33.10
2019-04-14T11:40:50.296Z,33.80
2019-04-14T11:43:22.071Z,31.20
2019-04-14T11:45:53.802Z,32.80
2019-04-14T11:48:25.737Z,32.60
2019-04-14T11:53:29.279Z,31.60
2019-04-14T11:56:01.039Z,31.20
2019-04-14T11:58:32.815Z,30.50
2019-04-14T12:01:16.895Z,30.80
2019-04-14T12:06:51.236Z,31.40
2019-04-14T12:09:44.611Z,30.00
2019-04-14T12:12:16.311Z,30.00
2019-04-14T12:14:48.379Z,29.60
2019-04-14T12:17:20.131Z,29.90
2019-04-14T12:19:52.403Z,29.60
2019-04-14T12:22:24.182Z,30.00
2019-04-14T12:24:55.973Z,30.10
2019-04-14T12:27:27.783Z,30.00
2019-04-14T12:29:59.573Z,29.50
2019-04-14T12:32:31.316Z,28.00
2019-04-14T12:37:33.803Z,28.80
2019-04-14T12:42:54.283Z,27.20
2019-04-14T12:45:44.906Z,26.90
2019-04-14T12:48:22.920Z,27.80
2019-04-14T12:51:01.130Z,27.80
2019-04-14T12:53:34.015Z,27.80
2019-04-14T12:59:04.635Z,27.50
2019-04-14T13:01:40.631Z,28.20
2019-04-14T13:06:43.327Z,28.20
2019-04-14T13:09:15.105Z,27.80
2019-04-14T13:14:17.901Z,27.50
2019-04-14T13:16:50.084Z,28.60
2019-04-14T13:19:22.111Z,27.00
2019-04-14T13:21:54.025Z,26.60
2019-04-14T13:24:26.260Z,27.30
2019-04-14T13:26:58.189Z,29.00
2019-04-14T13:32:00.983Z,27.90
2019-04-14T13:34:33.076Z,28.40
2019-04-14T13:39:36.822Z,27.80
2019-04-14T13:42:08.904Z,28.20
2019-04-14T13:44:40.763Z,27.10
2019-04-14T13:47:12.491Z,26.50
2019-04-14T13:49:44.703Z,25.70
2019-04-14T13:52:16.435Z,26.70
2019-04-14T13:54:48.184Z,27.90
2019-04-14T13:57:19.948Z,27.00
2019-04-14T13:59:51.721Z,26.80
2019-04-14T14:02:23.577Z,25.80
2019-04-14T14:04:55.316Z,24.50
2019-04-14T14:07:27.091Z,27.10
2019-04-14T14:09:58.889Z,25.80
2019-04-14T14:12:35.815Z,25.70
2019-04-14T14:18:10.363Z,24.70
2019-04-14T14:21:01.611Z,25.00
2019-04-14T14:23:55.007Z,24.60
2019-04-14T14:26:27.743Z,25.00
2019-04-14T14:28:59.487Z,26.30
2019-04-14T14:31:31.251Z,27.20
2019-04-14T14:34:03.051Z,25.50
2019-04-14T14:39:08.952Z,23.70
2019-04-14T14:44:11.621Z,26.50
2019-04-14T14:47:17.479Z,26.00
2019-04-14T14:50:23.435Z,26.80
2019-04-14T14:52:55.256Z,27.20
2019-04-14T14:57:57.845Z,28.00
2019-04-14T15:00:32.886Z,27.70
2019-04-14T15:03:04.656Z,28.20
2019-04-14T15:05:37.331Z,28.00
2019-04-14T15:10:39.838Z,29.40
2019-04-14T15:13:11.699Z,28.90
2019-04-14T15:15:43.447Z,30.20
2019-04-14T15:18:15.123Z,30.30
2019-04-14T15:20:46.870Z,31.40
2019-04-14T15:23:24.918Z,31.50
2019-04-14T15:25:52.058Z,31.40
2019-04-14T15:28:23.711Z,31.70
2019-04-14T15:30:55.443Z,31.10
2019-04-14T15:33:27.223Z,30.40
2019-04-14T15:35:58.944Z,30.60
2019-04-14T15:41:00.939Z,33.00
2019-04-14T15:43:32.192Z,33.10
2019-04-14T15:48:34.279Z,33.40
2019-04-14T15:51:06.119Z,33.80
2019-04-14T15:53:38.563Z,36.50
2019-04-14T15:58:53.307Z,40.10
2019-04-14T16:01:46.333Z,39.20
2019-04-14T16:04:21.719Z,39.50
2019-04-14T16:07:09.524Z,39.80
2019-04-14T16:09:45.420Z,41.00
2019-04-14T16:18:07.847Z,40.20
2019-04-14T16:20:40.911Z,40.90
2019-04-14T16:25:55.090Z,41.60
2019-04-14T16:31:32.680Z,42.20
2019-04-14T16:34:15.969Z,42.90
2019-04-14T16:36:47.455Z,42.20
2019-04-14T16:39:18.669Z,42.40
2019-04-14T16:41:50.227Z,42.60
2019-04-14T16:44:21.566Z,43.40
2019-04-14T16:46:53.984Z,44.50
2019-04-14T16:49:25.412Z,43.60
2019-04-14T16:52:18.443Z,43.30
2019-04-14T16:55:20.555Z,43.80
2019-04-14T16:58:09.827Z,44.50
2019-04-14T17:00:43.800Z,44.30
2019-04-14T17:05:45.672Z,45.80
2019-04-14T17:10:49.099Z,46.90
2019-04-14T17:13:23.429Z,47.60
2019-04-14T17:16:20.662Z,48.20
2019-04-14T17:19:13.987Z,47.90
2019-04-14T17:22:06.783Z,48.30
2019-04-14T17:25:09.001Z,48.30
2019-04-14T17:28:02.791Z,48.50
2019-04-14T17:31:00.348Z,49.10
2019-04-14T17:36:34.751Z,50.50
2019-04-14T17:39:19.196Z,52.20
2019-04-14T17:42:09.260Z,52.70
2019-04-14T17:44:48.215Z,53.20
2019-04-14T17:47:42.955Z,53.60
2019-04-14T17:53:21.799Z,56.30
2019-04-14T17:56:15.784Z,60.20
2019-04-14T17:59:18.142Z,63.20
2019-04-14T18:01:57.559Z,65.70
2019-04-14T18:04:40.463Z,70.00
2019-04-14T18:07:16.677Z,67.60
2019-04-14T18:10:05.537Z,74.00
2019-04-14T18:12:55.695Z,73.90
2019-04-14T18:15:36.600Z,80.10
2019-04-14T18:18:20.727Z,78.70
2019-04-14T18:20:55.481Z,88.60
2019-04-14T18:23:26.591Z,94.70
2019-04-14T18:25:57.819Z,91.50
2019-04-14T18:28:47.359Z,98.70
2019-04-14T18:31:32.475Z,99.90
2019-04-14T18:34:15.343Z,99.90
2019-04-14T18:37:06.355Z,99.90
2019-04-14T18:39:55.291Z,99.90
2019-04-14T18:45:42.752Z,99.90
2019-04-14T18:48:30.896Z,99.90
2019-04-14T18:51:29.943Z,99.90
2019-04-14T18:54:16.412Z,99.90
2019-04-14T18:57:06.555Z,99.90
2019-04-14T18:59:52.194Z,99.90
2019-04-14T19:02:23.400Z,99.90
2019-04-14T19:04:54.532Z,99.90
2019-04-14T19:07:25.975Z,99.90
2019-04-14T19:09:57.251Z,99.90
2019-04-14T19:15:29.817Z,99.90
2019-04-14T19:18:29.127Z,99.90
2019-04-14T19:21:03.818Z,99.90
2019-04-14T19:23:35.153Z,99.90
2019-04-14T19:26:06.599Z,99.90
2019-04-14T19:28:37.658Z,99.90
2019-04-14T19:31:08.703Z,99.90
2019-04-14T19:33:39.953Z,99.90
2019-04-14T19:36:11.150Z,99.90
2019-04-14T19:38:42.271Z,99.90
2019-04-14T19:46:15.311Z,99.90
2019-04-14T19:53:47.751Z,99.90
2019-04-14T19:58:50.487Z,99.90
2019-04-14T20:01:22.691Z,99.90
2019-04-14T20:03:53.859Z,99.90
2019-04-14T20:08:55.223Z,99.90
2019-04-14T20:11:26.339Z,99.90
2019-04-14T20:13:57.631Z,99.90
2019-04-14T20:16:56.798Z,99.90
2019-04-14T20:20:05.349Z,99.90
2019-04-14T20:22:55.597Z,99.90
2019-04-14T20:25:44.503Z,99.90
2019-04-14T20:28:22.478Z,99.90
2019-04-14T20:31:04.199Z,99.90
2019-04-14T20:33:35.527Z,99.90
2019-04-14T20:36:06.799Z,99.90
2019-04-14T20:38:38.006Z,99.90
2019-04-14T20:43:40.211Z,99.90
2019-04-14T20:46:11.379Z,99.90
2019-04-14T20:48:42.591Z,99.90
2019-04-14T20:51:13.731Z,99.90
2019-04-14T20:53:45.906Z,99.90
2019-04-14T20:56:18.067Z,99.90
2019-04-14T20:58:49.531Z,99.90
2019-04-14T21:01:21.791Z,99.90
2019-04-14T21:04:20.383Z,99.90
2019-04-14T21:07:10.560Z,99.90
2019-04-14T21:09:56.307Z,99.90
2019-04-14T21:12:56.573Z,99.90
2019-04-14T21:15:38.943Z,99.90
2019-04-14T21:18:40.670Z,99.90
2019-04-14T21:21:42.693Z,99.90
2019-04-14T21:24:35.883Z,99.90
2019-04-14T21:27:29.013Z,99.90
2019-04-14T21:30:14.952Z,99.90
2019-04-14T21:32:54.283Z,99.90
2019-04-14T21:35:43.196Z,99.90
2019-04-14T21:38:22.283Z,99.90
2019-04-14T21:40:59.781Z,99.90
2019-04-14T21:43:31.011Z,99.90
2019-04-14T21:46:02.195Z,99.90
2019-04-14T21:48:33.417Z,99.90
2019-04-14T21:51:04.679Z,99.90
2019-04-14T21:53:35.791Z,99.90
2019-04-14T21:56:13.239Z,99.90
2019-04-14T22:02:21.879Z,99.90
2019-04-14T22:05:20.978Z,99.90
2019-04-14T22:08:03.272Z,99.90
2019-04-14T22:10:38.575Z,99.90
2019-04-14T22:13:09.659Z,99.90
2019-04-14T22:15:40.769Z,99.90
2019-04-14T22:18:11.951Z,99.90
2019-04-14T22:20:43.151Z,99.90
2019-04-14T22:23:14.335Z,99.90
2019-04-14T22:25:45.550Z,99.90
2019-04-14T22:28:16.724Z,99.90
2019-04-14T22:30:48.855Z,99.90
2019-04-14T22:35:51.459Z,99.90
2019-04-14T22:38:22.506Z,99.90
2019-04-14T22:40:53.635Z,99.90
2019-04-14T22:43:25.200Z,99.90
2019-04-14T22:45:56.676Z,99.90
2019-04-14T22:48:33.734Z,99.90
2019-04-14T22:51:04.891Z,99.90
2019-04-14T22:53:36.076Z,99.90
2019-04-14T22:56:10.858Z,99.90
2019-04-14T22:58:42.331Z,99.90
2019-04-14T23:01:19.830Z,99.90
2019-04-14T23:04:08.475Z,99.90
2019-04-14T23:06:57.083Z,99.90
2019-04-14T23:09:50.261Z,99.90
2019-04-14T23:15:34.535Z,99.90
2019-04-14T23:18:14.199Z,99.90
2019-04-14T23:21:04.360Z,99.90
2019-04-14T23:23:42.702Z,99.90
2019-04-14T23:26:14.135Z,99.90
2019-04-14T23:28:45.740Z,99.90
2019-04-14T23:31:16.931Z,99.90
2019-04-14T23:33:50.767Z,99.90
2019-04-14T23:38:52.124Z,99.90
2019-04-14T23:43:53.584Z,99.90
2019-04-14T23:46:24.851Z,99.90
2019-04-14T23:48:57.372Z,99.90
2019-04-14T23:51:29.618Z,99.90
2019-04-14T23:54:00.715Z,99.90
2019-04-14T23:56:32.095Z,99.90
2019-04-14T23:59:03.334Z,99.90
